createdAt,value
2023-01-09T00:01:02.108Z,3.10
2023-01-09T00:03:29.522Z,3.20
2023-01-09T00:05:56.419Z,3.20
2023-01-09T00:08:23.404Z,3.20
2023-01-09T00:10:50.668Z,3.20
2023-01-09T00:13:18.289Z,3.30
2023-01-09T00:15:45.676Z,3.30
2023-01-09T00:18:13.689Z,3.30
2023-01-09T00:20:40.868Z,3.30
2023-01-09T00:23:08.532Z,3.40
2023-01-09T00:25:35.749Z,3.40
2023-01-09T00:28:02.907Z,3.40
2023-01-09T00:30:30.193Z,3.50
2023-01-09T00:32:57.249Z,3.50
2023-01-09T00:35:26.988Z,3.60
2023-01-09T00:37:54.352Z,3.60
2023-01-09T00:40:21.401Z,3.60
2023-01-09T00:42:56.548Z,3.60
2023-01-09T00:45:29.435Z,3.70
2023-01-09T00:48:07.552Z,3.70
2023-01-09T00:50:35.566Z,3.80
2023-01-09T00:53:11.650Z,3.80
2023-01-09T00:55:39.444Z,3.90
2023-01-09T00:58:07.079Z,3.90
2023-01-09T01:00:33.975Z,3.90
2023-01-09T01:03:00.885Z,4.00
2023-01-09T01:05:46.159Z,4.00
2023-01-09T01:08:15.221Z,4.00
2023-01-09T01:10:43.214Z,4.10
2023-01-09T01:13:10.297Z,4.10
2023-01-09T01:15:40.428Z,4.10
2023-01-09T01:18:07.606Z,4.20
2023-01-09T01:20:34.652Z,4.20
2023-01-09T01:23:01.696Z,4.20
2023-01-09T01:25:28.610Z,4.30
2023-01-09T01:27:55.477Z,4.30
2023-01-09T01:30:22.350Z,4.40
2023-01-09T01:32:49.262Z,4.40
2023-01-09T01:35:16.215Z,4.40
2023-01-09T01:37:43.220Z,4.40
2023-01-09T01:40:11.604Z,4.40
2023-01-09T01:42:49.236Z,4.40
2023-01-09T01:45:24.843Z,4.40
2023-01-09T01:48:11.540Z,4.50
2023-01-09T01:50:53.939Z,4.50
2023-01-09T01:53:40.422Z,4.50
2023-01-09T01:56:40.435Z,4.40
2023-01-09T01:59:39.618Z,4.50
2023-01-09T02:02:10.312Z,4.50
2023-01-09T02:04:40.460Z,4.50
2023-01-09T02:07:10.180Z,4.50
2023-01-09T02:09:40.455Z,4.50
2023-01-09T02:12:27.645Z,4.50
2023-01-09T02:15:11.988Z,4.50
2023-01-09T02:18:06.402Z,4.50
2023-01-09T02:20:55.395Z,4.50
2023-01-09T02:23:33.041Z,4.50
2023-01-09T02:26:02.632Z,4.50
2023-01-09T02:28:53.466Z,4.50
2023-01-09T02:31:42.348Z,4.50
2023-01-09T02:34:42.328Z,4.50
2023-01-09T02:37:32.920Z,4.50
2023-01-09T02:40:16.088Z,4.50
2023-01-09T02:42:45.644Z,4.50
2023-01-09T02:45:12.521Z,4.50
2023-01-09T02:47:42.691Z,4.50
2023-01-09T02:50:20.065Z,4.50
2023-01-09T02:53:15.969Z,4.40
2023-01-09T02:56:10.164Z,4.40
2023-01-09T02:59:01.887Z,4.40
2023-01-09T03:01:48.130Z,4.30
2023-01-09T03:04:30.354Z,4.30
2023-01-09T03:07:20.001Z,4.30
2023-01-09T03:09:50.613Z,4.30
2023-01-09T03:12:19.028Z,4.30
2023-01-09T03:14:55.728Z,4.30
2023-01-09T03:17:37.893Z,4.30
2023-01-09T03:20:09.295Z,4.20
2023-01-09T03:22:36.559Z,4.30
2023-01-09T03:25:03.436Z,4.30
2023-01-09T03:27:32.995Z,4.30
2023-01-09T03:29:59.765Z,4.30
2023-01-09T03:32:27.795Z,4.30
2023-01-09T03:34:54.751Z,4.30
2023-01-09T03:37:21.593Z,4.30
2023-01-09T03:39:48.466Z,4.40
2023-01-09T03:42:15.283Z,4.30
2023-01-09T03:44:42.085Z,4.30
2023-01-09T03:47:08.948Z,4.30
2023-01-09T03:49:35.857Z,4.30
2023-01-09T03:52:02.651Z,4.20
2023-01-09T03:54:29.441Z,4.20
2023-01-09T03:56:56.414Z,4.10
2023-01-09T03:59:25.676Z,4.10
2023-01-09T04:01:52.574Z,4.10
2023-01-09T04:04:19.458Z,4.10
2023-01-09T04:06:46.372Z,4.00
2023-01-09T04:09:13.465Z,4.00
2023-01-09T04:11:40.225Z,4.00
2023-01-09T04:14:06.992Z,3.90
2023-01-09T04:16:33.987Z,3.90
2023-01-09T04:19:00.971Z,3.80
2023-01-09T04:21:27.821Z,3.80
2023-01-09T04:23:54.685Z,3.80
2023-01-09T04:26:21.483Z,3.80
2023-01-09T04:28:48.638Z,3.70
2023-01-09T04:31:15.796Z,3.70
2023-01-09T04:33:42.624Z,3.60
2023-01-09T04:36:10.968Z,3.60
2023-01-09T04:38:37.859Z,3.50
2023-01-09T04:41:04.777Z,3.60
2023-01-09T04:43:31.744Z,3.50
2023-01-09T04:45:58.653Z,3.50
2023-01-09T04:48:25.472Z,3.50
2023-01-09T04:50:52.446Z,3.50
2023-01-09T04:53:19.264Z,3.40
2023-01-09T04:55:46.361Z,3.40
2023-01-09T04:58:13.223Z,3.30
2023-01-09T05:00:41.289Z,3.40
2023-01-09T05:03:08.073Z,3.30
2023-01-09T05:05:34.939Z,3.30
2023-01-09T05:08:01.787Z,3.30
2023-01-09T05:10:28.604Z,3.30
2023-01-09T05:12:55.435Z,3.20
2023-01-09T05:15:22.276Z,3.20
2023-01-09T05:17:49.208Z,3.20
2023-01-09T05:20:16.069Z,3.20
2023-01-09T05:22:42.848Z,3.20
2023-01-09T05:25:10.000Z,3.20
2023-01-09T05:27:36.869Z,3.20
2023-01-09T05:30:03.982Z,3.20
2023-01-09T05:32:30.997Z,3.10
2023-01-09T05:34:57.973Z,3.10
2023-01-09T05:37:24.893Z,3.10
2023-01-09T05:39:51.772Z,3.10
2023-01-09T05:42:18.738Z,3.10
2023-01-09T05:44:45.542Z,3.10
2023-01-09T05:47:12.387Z,3.00
2023-01-09T05:49:40.469Z,3.10
2023-01-09T05:52:08.467Z,3.00
2023-01-09T05:54:35.297Z,3.10
2023-01-09T05:57:02.237Z,3.00
2023-01-09T05:59:29.272Z,3.10
2023-01-09T06:01:56.200Z,3.10
2023-01-09T06:04:23.064Z,3.10
2023-01-09T06:06:50.081Z,3.10
2023-01-09T06:09:16.906Z,3.10
2023-01-09T06:11:43.731Z,3.10
2023-01-09T06:14:10.591Z,3.10
2023-01-09T06:16:37.477Z,3.10
2023-01-09T06:19:05.956Z,3.10
2023-01-09T06:21:33.765Z,3.20
2023-01-09T06:24:00.745Z,3.20
2023-01-09T06:26:28.047Z,3.20
2023-01-09T06:28:55.958Z,3.20
2023-01-09T06:31:24.177Z,3.20
2023-01-09T06:33:51.185Z,3.30
2023-01-09T06:36:18.949Z,3.30
2023-01-09T06:38:46.587Z,3.20
2023-01-09T06:41:13.546Z,3.30
2023-01-09T06:43:40.451Z,3.20
2023-01-09T06:46:07.376Z,3.30
2023-01-09T06:48:35.893Z,3.30
2023-01-09T06:51:03.198Z,3.30
2023-01-09T06:53:30.144Z,3.30
2023-01-09T06:55:57.014Z,3.30
2023-01-09T06:58:24.047Z,3.30
2023-01-09T07:00:50.979Z,3.30
2023-01-09T07:03:21.692Z,3.30
2023-01-09T07:05:49.979Z,3.40
2023-01-09T07:08:16.850Z,3.40
2023-01-09T07:10:44.459Z,3.40
2023-01-09T07:13:11.851Z,3.50
2023-01-09T07:15:40.221Z,3.50
2023-01-09T07:18:07.132Z,3.60
2023-01-09T07:20:34.176Z,3.60
2023-01-09T07:23:01.266Z,3.60
2023-01-09T07:25:28.048Z,3.70
2023-01-09T07:27:55.144Z,3.70
2023-01-09T07:30:22.008Z,3.80
2023-01-09T07:32:48.916Z,3.80
2023-01-09T07:35:15.916Z,3.80
2023-01-09T07:37:42.802Z,3.90
2023-01-09T07:40:10.469Z,4.00
2023-01-09T07:42:37.488Z,4.00
2023-01-09T07:45:05.350Z,4.10
2023-01-09T07:47:32.298Z,4.10
2023-01-09T07:49:59.396Z,4.20
2023-01-09T07:52:28.077Z,4.20
2023-01-09T07:54:55.033Z,4.30
2023-01-09T07:57:22.036Z,4.40
2023-01-09T07:59:48.874Z,4.40
2023-01-09T08:02:15.953Z,4.50
2023-01-09T08:04:44.245Z,4.50
2023-01-09T08:07:12.630Z,4.60
2023-01-09T08:09:39.537Z,4.70
2023-01-09T08:12:06.653Z,4.70
2023-01-09T08:14:33.469Z,4.70
2023-01-09T08:17:03.677Z,4.70
2023-01-09T08:19:34.980Z,4.80
2023-01-09T08:22:04.583Z,4.80
2023-01-09T08:24:36.643Z,4.80
2023-01-09T08:27:03.528Z,4.80
2023-01-09T08:29:32.968Z,4.80
2023-01-09T08:32:07.095Z,4.80
2023-01-09T08:34:37.025Z,4.80
2023-01-09T08:37:14.458Z,4.80
2023-01-09T08:39:41.487Z,4.90
2023-01-09T08:42:28.154Z,4.90
2023-01-09T08:45:13.808Z,5.00
2023-01-09T08:47:40.961Z,5.00
2023-01-09T08:50:08.500Z,5.00
2023-01-09T08:52:35.282Z,5.00
2023-01-09T08:55:02.152Z,5.00
2023-01-09T08:57:29.383Z,5.00
2023-01-09T08:59:56.272Z,5.10
2023-01-09T09:02:23.130Z,5.10
2023-01-09T09:04:54.307Z,5.10
2023-01-09T09:07:26.437Z,5.10
2023-01-09T09:09:54.474Z,5.10
2023-01-09T09:12:22.213Z,5.20
2023-01-09T09:15:08.032Z,5.20
2023-01-09T09:17:34.867Z,5.20
2023-01-09T09:20:01.693Z,5.30
2023-01-09T09:22:28.728Z,5.30
2023-01-09T09:24:55.649Z,5.30
2023-01-09T09:27:22.442Z,5.30
2023-01-09T09:29:50.087Z,5.40
2023-01-09T09:32:16.902Z,5.40
2023-01-09T09:34:43.730Z,5.40
2023-01-09T09:37:10.764Z,5.50
2023-01-09T09:39:40.186Z,5.50
2023-01-09T09:42:43.900Z,5.60
2023-01-09T09:45:10.688Z,5.60
2023-01-09T09:47:41.649Z,5.70
2023-01-09T09:50:41.891Z,5.70
2023-01-09T09:53:25.925Z,5.70
2023-01-09T09:55:53.564Z,5.70
2023-01-09T09:58:34.567Z,5.80
2023-01-09T10:01:02.408Z,5.80
2023-01-09T10:03:43.875Z,5.80
2023-01-09T10:06:34.677Z,5.90
2023-01-09T10:09:13.259Z,5.90
2023-01-09T10:11:55.152Z,6.00
2023-01-09T10:14:25.281Z,6.00
2023-01-09T10:16:58.096Z,6.10
2023-01-09T10:19:57.320Z,6.10
2023-01-09T10:22:51.389Z,6.10
2023-01-09T10:25:27.138Z,6.20
2023-01-09T10:28:30.801Z,6.30
2023-01-09T10:31:21.766Z,6.40
2023-01-09T10:34:27.344Z,6.50
2023-01-09T10:37:06.252Z,6.50
2023-01-09T10:39:38.920Z,6.60
2023-01-09T10:42:16.464Z,6.60
2023-01-09T10:44:59.744Z,6.70
2023-01-09T10:47:32.467Z,6.70
2023-01-09T10:49:59.819Z,6.70
2023-01-09T10:52:36.199Z,6.70
2023-01-09T10:55:16.947Z,6.80
2023-01-09T10:57:47.366Z,6.70
2023-01-09T11:00:27.225Z,6.80
2023-01-09T11:02:55.243Z,6.80
2023-01-09T11:05:29.180Z,6.80
2023-01-09T11:08:08.463Z,6.80
2023-01-09T11:10:50.516Z,6.80
2023-01-09T11:13:25.209Z,6.80
2023-01-09T11:16:04.345Z,6.80
2023-01-09T11:18:32.327Z,6.80
2023-01-09T11:21:27.611Z,6.80
2023-01-09T11:23:55.597Z,6.80
2023-01-09T11:26:29.029Z,6.80
2023-01-09T11:29:08.391Z,6.80
2023-01-09T11:31:36.020Z,6.90
2023-01-09T11:34:03.043Z,6.90
2023-01-09T11:36:33.146Z,6.90
2023-01-09T11:39:02.810Z,6.90
2023-01-09T11:41:46.360Z,6.90
2023-01-09T11:44:24.894Z,6.90
2023-01-09T11:46:51.819Z,6.90
2023-01-09T11:49:30.875Z,6.90
2023-01-09T11:52:19.470Z,6.80
2023-01-09T11:54:58.379Z,6.90
2023-01-09T11:57:28.122Z,6.90
2023-01-09T12:00:02.039Z,6.80
2023-01-09T12:03:33.035Z,6.80
2023-01-09T12:06:40.862Z,6.80
2023-01-09T12:09:18.659Z,6.80
2023-01-09T12:12:08.720Z,6.80
2023-01-09T12:14:47.071Z,6.80
2023-01-09T12:17:41.811Z,6.80
2023-01-09T12:20:30.629Z,6.80
2023-01-09T12:23:04.086Z,6.80
2023-01-09T12:25:58.305Z,6.80
2023-01-09T12:28:31.193Z,6.80
2023-01-09T12:31:13.626Z,6.80
2023-01-09T12:34:20.460Z,6.70
2023-01-09T12:37:19.699Z,6.70
2023-01-09T12:40:08.152Z,6.70
2023-01-09T12:42:59.565Z,6.70
2023-01-09T12:45:35.126Z,6.70
2023-01-09T12:48:16.927Z,6.70
2023-01-09T12:51:09.192Z,6.70
2023-01-09T12:53:45.694Z,6.70
2023-01-09T12:56:41.045Z,6.70
2023-01-09T12:59:35.012Z,6.70
2023-01-09T13:02:32.671Z,6.70
2023-01-09T13:05:21.369Z,6.70
2023-01-09T13:08:00.729Z,6.70
2023-01-09T13:10:34.908Z,6.60
2023-01-09T13:13:14.430Z,6.60
2023-01-09T13:15:50.261Z,6.60
2023-01-09T13:18:26.196Z,6.60
2023-01-09T13:20:58.686Z,6.60
2023-01-09T13:23:42.060Z,6.60
2023-01-09T13:26:15.708Z,6.60
2023-01-09T13:28:47.235Z,6.60
2023-01-09T13:31:29.611Z,6.60
2023-01-09T13:33:59.140Z,6.60
2023-01-09T13:36:37.694Z,6.60
2023-01-09T13:39:05.697Z,6.60
2023-01-09T13:41:51.410Z,6.60
2023-01-09T13:44:18.203Z,6.50
2023-01-09T13:46:50.277Z,6.50
2023-01-09T13:49:42.076Z,6.50
2023-01-09T13:52:38.355Z,6.50
2023-01-09T13:55:11.486Z,6.50
2023-01-09T13:57:42.846Z,6.50
2023-01-09T14:00:12.758Z,6.50
2023-01-09T14:02:39.628Z,6.50
2023-01-09T14:05:38.622Z,6.50
2023-01-09T14:08:11.855Z,6.50
2023-01-09T14:10:50.904Z,6.50
2023-01-09T14:13:20.558Z,6.50
2023-01-09T14:15:49.714Z,6.50
2023-01-09T14:18:32.828Z,6.40
2023-01-09T14:21:09.890Z,6.40
2023-01-09T14:24:04.485Z,6.40
2023-01-09T14:26:57.772Z,6.50
2023-01-09T14:29:40.352Z,6.40
2023-01-09T14:32:33.803Z,6.40
2023-01-09T14:35:23.193Z,6.40
2023-01-09T14:38:20.237Z,6.40
2023-01-09T14:40:59.083Z,6.40
2023-01-09T14:43:56.402Z,6.40
2023-01-09T14:46:24.474Z,6.40
2023-01-09T14:49:26.460Z,6.40
2023-01-09T14:51:53.939Z,6.40
2023-01-09T14:54:48.654Z,6.40
2023-01-09T14:57:28.413Z,6.40
2023-01-09T14:59:58.832Z,6.40
2023-01-09T15:02:29.847Z,6.40
2023-01-09T15:05:02.109Z,6.40
2023-01-09T15:07:40.325Z,6.40
2023-01-09T15:10:08.368Z,6.40
2023-01-09T15:12:35.545Z,6.40
2023-01-09T15:15:04.700Z,6.40
2023-01-09T15:17:35.425Z,6.40
2023-01-09T15:20:06.378Z,6.40
2023-01-09T15:22:37.921Z,6.30
2023-01-09T15:25:39.854Z,6.30
2023-01-09T15:28:25.145Z,6.30
2023-01-09T15:31:00.187Z,6.30
2023-01-09T15:33:27.364Z,6.30
2023-01-09T15:36:00.140Z,6.30
2023-01-09T15:38:28.894Z,6.30
2023-01-09T15:41:01.315Z,6.30
2023-01-09T15:43:31.182Z,6.30
2023-01-09T15:45:59.119Z,6.30
2023-01-09T15:48:29.716Z,6.30
2023-01-09T15:51:10.447Z,6.30
2023-01-09T15:53:37.396Z,6.30
2023-01-09T15:56:13.394Z,6.30
2023-01-09T15:58:47.206Z,6.30
2023-01-09T16:01:30.472Z,6.20
2023-01-09T16:04:17.658Z,6.20
2023-01-09T16:06:47.352Z,6.20
2023-01-09T16:09:30.951Z,6.20
2023-01-09T16:12:03.194Z,6.20
2023-01-09T16:14:45.581Z,6.20
2023-01-09T16:17:16.990Z,6.20
2023-01-09T16:19:55.313Z,6.20
2023-01-09T16:22:24.932Z,6.20
2023-01-09T16:24:55.651Z,6.20
2023-01-09T16:27:27.129Z,6.20
2023-01-09T16:29:59.560Z,6.20
2023-01-09T16:32:47.350Z,6.10
2023-01-09T16:35:20.332Z,6.10
2023-01-09T16:37:48.012Z,6.10
2023-01-09T16:40:24.174Z,6.10
2023-01-09T16:43:07.249Z,6.10
2023-01-09T16:45:41.782Z,6.10
2023-01-09T16:48:17.177Z,6.10
2023-01-09T16:50:44.623Z,6.10
2023-01-09T16:53:22.614Z,6.10
2023-01-09T16:55:50.283Z,6.10
2023-01-09T16:58:26.006Z,6.10
2023-01-09T17:00:53.284Z,6.10
2023-01-09T17:03:22.591Z,6.10
2023-01-09T17:06:00.773Z,6.10
2023-01-09T17:08:33.246Z,6.20
2023-01-09T17:11:00.423Z,6.20
2023-01-09T17:13:27.857Z,6.20
2023-01-09T17:15:56.991Z,6.20
2023-01-09T17:18:26.102Z,6.20
2023-01-09T17:20:55.606Z,6.20
2023-01-09T17:23:25.492Z,6.20
2023-01-09T17:26:15.886Z,6.20
2023-01-09T17:28:51.139Z,6.20
2023-01-09T17:31:18.978Z,6.20
2023-01-09T17:33:55.165Z,6.20
2023-01-09T17:36:32.210Z,6.20
2023-01-09T17:39:00.128Z,6.20
2023-01-09T17:41:30.937Z,6.20
2023-01-09T17:43:59.206Z,6.20
2023-01-09T17:46:37.632Z,6.20
2023-01-09T17:49:05.767Z,6.30
2023-01-09T17:51:32.606Z,6.30
2023-01-09T17:53:59.793Z,6.30
2023-01-09T17:56:29.849Z,6.30
2023-01-09T17:58:56.651Z,6.30
2023-01-09T18:01:23.538Z,6.30
2023-01-09T18:03:50.719Z,6.30
2023-01-09T18:06:19.864Z,6.30
2023-01-09T18:08:47.194Z,6.30
2023-01-09T18:11:19.863Z,6.30
2023-01-09T18:13:48.758Z,6.30
2023-01-09T18:16:20.110Z,6.30
2023-01-09T18:18:47.314Z,6.30
2023-01-09T18:21:19.770Z,6.30
2023-01-09T18:23:47.777Z,6.30
2023-01-09T18:26:22.605Z,6.30
2023-01-09T18:29:00.167Z,6.30
2023-01-09T18:31:29.349Z,6.40
2023-01-09T18:33:58.102Z,6.40
2023-01-09T18:36:30.765Z,6.40
2023-01-09T18:38:59.987Z,6.40
2023-01-09T18:41:27.766Z,6.40
2023-01-09T18:43:56.814Z,6.50
2023-01-09T18:46:24.661Z,6.50
2023-01-09T18:48:55.787Z,6.50
2023-01-09T18:51:23.820Z,6.50
2023-01-09T18:53:51.712Z,6.50
2023-01-09T18:56:19.901Z,6.50
2023-01-09T18:58:47.914Z,6.50
2023-01-09T19:01:15.314Z,6.50
2023-01-09T19:03:42.521Z,6.50
2023-01-09T19:06:09.861Z,6.50
2023-01-09T19:08:36.666Z,6.50
2023-01-09T19:11:04.514Z,6.50
2023-01-09T19:13:36.548Z,6.50
2023-01-09T19:16:05.001Z,6.50
2023-01-09T19:18:40.650Z,6.50
2023-01-09T19:21:16.144Z,6.50
2023-01-09T19:23:44.761Z,6.60
2023-01-09T19:26:20.786Z,6.60
2023-01-09T19:28:48.265Z,6.50
2023-01-09T19:31:16.525Z,6.60
2023-01-09T19:33:44.936Z,6.50
2023-01-09T19:36:12.107Z,6.50
2023-01-09T19:38:39.083Z,6.50
2023-01-09T19:41:19.309Z,6.50
2023-01-09T19:43:47.733Z,6.50
2023-01-09T19:46:18.523Z,6.50
2023-01-09T19:48:45.736Z,6.50
2023-01-09T19:51:13.965Z,6.50
2023-01-09T19:53:40.993Z,6.50
2023-01-09T19:56:17.816Z,6.40
2023-01-09T19:58:53.286Z,6.40
2023-01-09T20:01:23.702Z,6.40
2023-01-09T20:03:50.960Z,6.40
2023-01-09T20:06:22.404Z,6.40
2023-01-09T20:08:55.681Z,6.30
2023-01-09T20:11:24.092Z,6.30
2023-01-09T20:13:51.546Z,6.30
2023-01-09T20:16:21.029Z,6.30
2023-01-09T20:18:48.502Z,6.20
2023-01-09T20:23:50.648Z,6.20
2023-01-09T20:26:18.096Z,6.20
2023-01-09T20:28:45.574Z,6.20
2023-01-09T20:31:16.194Z,6.10
2023-01-09T20:33:47.664Z,6.10
2023-01-09T20:36:15.340Z,6.10
2023-01-09T20:38:42.981Z,6.10
2023-01-09T20:41:24.364Z,6.10
2023-01-09T20:44:15.674Z,6.10
2023-01-09T20:46:55.535Z,6.10
2023-01-09T20:49:37.144Z,6.00
2023-01-09T20:52:06.245Z,6.00
2023-01-09T20:54:33.150Z,6.00
2023-01-09T20:57:02.669Z,6.00
2023-01-09T20:59:32.057Z,5.90
2023-01-09T21:01:58.875Z,6.00
2023-01-09T21:04:25.760Z,5.90
2023-01-09T21:06:52.616Z,6.00
2023-01-09T21:09:20.356Z,5.90
2023-01-09T21:11:47.382Z,5.80
2023-01-09T21:14:14.288Z,5.70
2023-01-09T21:16:41.175Z,5.70
2023-01-09T21:19:08.980Z,5.70
2023-01-09T21:21:35.812Z,5.60
2023-01-09T21:24:04.632Z,5.60
2023-01-09T21:26:31.597Z,5.60
2023-01-09T21:29:01.068Z,5.60
2023-01-09T21:31:35.902Z,5.60
2023-01-09T21:34:08.134Z,5.60
2023-01-09T21:36:35.934Z,5.60
2023-01-09T21:39:07.621Z,5.70
2023-01-09T21:41:53.769Z,5.60
2023-01-09T21:44:39.236Z,5.70
2023-01-09T21:47:07.273Z,5.70
2023-01-09T21:49:35.998Z,5.70
2023-01-09T21:52:04.700Z,5.70
2023-01-09T21:54:34.187Z,5.60
2023-01-09T21:57:02.570Z,5.60
2023-01-09T21:59:31.311Z,5.60
2023-01-09T22:01:59.954Z,5.70
2023-01-09T22:04:29.799Z,5.70
2023-01-09T22:06:56.877Z,5.80
2023-01-09T22:09:23.756Z,5.70
2023-01-09T22:11:50.675Z,5.80
2023-01-09T22:14:20.374Z,5.80
2023-01-09T22:16:47.437Z,5.80
2023-01-09T22:19:22.179Z,5.80
2023-01-09T22:21:49.059Z,5.90
2023-01-09T22:24:18.045Z,5.90
2023-01-09T22:26:46.012Z,5.90
2023-01-09T22:29:12.890Z,5.90
2023-01-09T22:31:40.649Z,6.00
2023-01-09T22:34:07.694Z,6.00
2023-01-09T22:36:38.646Z,6.00
2023-01-09T22:39:07.378Z,6.00
2023-01-09T22:41:35.592Z,6.00
2023-01-09T22:44:02.419Z,6.00
2023-01-09T22:46:30.762Z,6.00
2023-01-09T22:48:57.636Z,6.00
2023-01-09T22:51:24.505Z,6.00
2023-01-09T22:53:51.544Z,6.10
2023-01-09T22:56:20.944Z,6.00
2023-01-09T22:58:53.511Z,6.00
2023-01-09T23:01:21.432Z,6.00
2023-01-09T23:04:44.836Z,6.00
2023-01-09T23:07:11.608Z,6.00
2023-01-09T23:09:38.985Z,6.00
2023-01-09T23:12:06.806Z,5.90
2023-01-09T23:14:36.931Z,5.90
2023-01-09T23:17:05.698Z,5.90
2023-01-09T23:19:32.879Z,5.90
2023-01-09T23:22:01.233Z,5.80
2023-01-09T23:24:28.848Z,5.90
2023-01-09T23:26:56.605Z,5.80
2023-01-09T23:29:24.529Z,5.80
2023-01-09T23:31:53.543Z,5.80
2023-01-09T23:34:24.157Z,5.70
2023-01-09T23:36:52.261Z,5.70
2023-01-09T23:39:19.131Z,5.80
2023-01-09T23:42:06.256Z,5.80
2023-01-09T23:44:33.224Z,5.80
2023-01-09T23:47:00.123Z,5.80
2023-01-09T23:49:26.914Z,5.80
2023-01-09T23:51:54.096Z,5.80
2023-01-09T23:54:20.879Z,5.80
2023-01-09T23:56:47.886Z,5.80
2023-01-09T23:59:14.928Z,5.90
